Time;durP1;ratioP1;P1;durP2;ratioP2;P2;SDS_P1;SDS_P2;PMS_P1;PMS_P2;Temp;Humidity;BMP_temperature;BMP_pressure;BME280_temperature;BME280_humidity;BME280_pressure;Samples;Min_cycle;Max_cycle;Signal;HPM_P1;HPM_P2
2021/06/13 00:01:48;;;;;;;7.75;3.83;;;;;;;21.00;37.29;102678.03;4155831;28;20482;-56
2021/06/13 00:03:50;;;;;;;8.65;3.75;;;;;;;21.28;36.71;102677.16;4154849;28;20120;-56
2021/06/13 00:05:50;;;;;;;6.70;3.17;;;;;;;21.48;36.49;102664.72;4152988;28;20047;-57
2021/06/13 00:07:50;;;;;;;6.70;3.88;;;;;;;21.55;36.44;102671.00;4151862;28;20073;-56
2021/06/13 00:09:51;;;;;;;7.50;4.13;;;;;;;21.09;37.09;102665.41;4153463;28;20407;-60
2021/06/13 00:11:51;;;;;;;5.32;3.15;;;;;;;21.29;36.88;102661.34;4139359;28;20038;-60
2021/06/13 00:13:52;;;;;;;7.43;4.10;;;;;;;21.11;36.78;102666.00;4153082;28;20033;-60
2021/06/13 00:15:52;;;;;;;6.82;3.47;;;;;;;21.10;37.09;102666.25;4156335;28;20067;-59
2021/06/13 00:17:53;;;;;;;9.70;3.67;;;;;;;21.16;37.04;102665.25;4155537;28;20527;-57
2021/06/13 00:19:54;;;;;;;5.43;3.15;;;;;;;21.22;36.85;102664.25;4159885;28;20498;-58
2021/06/13 00:21:54;;;;;;;6.15;3.53;;;;;;;21.15;36.74;102653.25;4156904;28;20030;-59
2021/06/13 00:23:55;;;;;;;6.35;4.07;;;;;;;21.20;37.01;102670.06;4154532;28;20136;-55
2021/06/13 00:25:55;;;;;;;6.07;3.67;;;;;;;20.95;37.11;102662.09;4151678;28;20037;-58
2021/06/13 00:27:55;;;;;;;5.20;3.65;;;;;;;21.03;37.07;102658.88;4151204;28;20514;-55
2021/06/13 00:29:56;;;;;;;5.60;3.50;;;;;;;21.15;36.67;102658.00;4153905;28;20038;-56
2021/06/13 00:31:57;;;;;;;4.90;3.13;;;;;;;20.99;36.87;102670.78;4150839;28;20033;-57
2021/06/13 00:33:58;;;;;;;13.57;3.97;;;;;;;21.11;37.13;102673.50;4156867;28;20044;-56
2021/06/13 00:35:58;;;;;;;7.00;4.57;;;;;;;21.09;36.54;102661.78;4153031;28;20052;-56
2021/06/13 00:37:59;;;;;;;8.57;3.55;;;;;;;21.06;36.73;102673.44;4152846;28;20076;-56
2021/06/13 00:40:00;;;;;;;5.22;3.45;;;;;;;21.00;36.83;102670.53;4156793;28;20033;-56
2021/06/13 00:42:01;;;;;;;6.28;3.50;;;;;;;20.99;37.04;102668.84;4151291;28;20124;-59
2021/06/13 00:44:02;;;;;;;6.55;3.38;;;;;;;20.86;36.97;102646.88;4152169;28;20025;-53
2021/06/13 00:46:02;;;;;;;5.85;3.53;;;;;;;20.83;37.45;102664.06;4150653;28;20091;-55
2021/06/13 00:48:03;;;;;;;7.70;3.50;;;;;;;20.94;37.19;102660.38;4150266;28;20739;-55
2021/06/13 00:50:28;;;;;;;5.75;3.42;;;;;;;21.03;36.93;102664.47;4151377;28;20045;-52
2021/06/13 00:52:29;;;;;;;5.43;3.38;;;;;;;21.07;37.06;102675.09;4151817;28;20029;-59
2021/06/13 00:54:29;;;;;;;6.25;3.38;;;;;;;20.80;36.78;102659.84;4153171;28;20119;-58
2021/06/13 00:56:30;;;;;;;9.05;4.18;;;;;;;20.58;37.58;102664.41;4153268;28;20061;-59
2021/06/13 00:58:31;;;;;;;6.65;3.75;;;;;;;20.93;37.19;102666.19;4153030;28;20033;-56
2021/06/13 01:00:33;;;;;;;4.70;3.13;;;;;;;20.74;37.18;102662.78;4154166;28;20569;-58
2021/06/13 01:02:33;;;;;;;6.82;3.97;;;;;;;20.66;37.53;102672.38;4156205;28;20021;-56
2021/06/13 01:04:34;;;;;;;7.25;4.28;;;;;;;20.29;38.16;102675.44;4153640;28;20049;-57
2021/06/13 01:06:49;;;;;;;6.70;3.90;;;;;;;20.58;37.64;102684.72;4158276;28;20148;-57
2021/06/13 01:08:55;;;;;;;6.93;3.85;;;;;;;20.70;37.25;102681.06;4154169;28;20030;-56
2021/06/13 01:11:05;;;;;;;8.07;3.97;;;;;;;20.88;37.05;102678.06;4156426;28;20041;-56
2021/06/13 01:13:40;;;;;;;6.80;3.08;;;;;;;20.87;37.15;102676.41;4155209;28;20045;-57
2021/06/13 01:15:46;;;;;;;6.75;3.80;;;;;;;20.82;37.08;102668.81;4156710;28;20029;-57
2021/06/13 01:17:58;;;;;;;4.43;3.63;;;;;;;20.79;37.43;102680.44;4156197;28;20033;-57
2021/06/13 01:20:13;;;;;;;6.30;3.55;;;;;;;20.78;37.41;102680.69;4156290;28;20067;-58
2021/06/13 01:22:38;;;;;;;6.88;3.60;;;;;;;20.73;37.24;102681.44;4156263;28;20099;-55
2021/06/13 01:25:05;;;;;;;6.68;3.85;;;;;;;20.76;37.16;102678.16;4158208;28;20451;-54
2021/06/13 01:27:27;;;;;;;5.88;3.78;;;;;;;20.66;37.60;102686.28;4151189;28;20045;-56
2021/06/13 01:29:55;;;;;;;5.60;3.50;;;;;;;20.83;37.00;102678.81;4158436;28;20419;-57
2021/06/13 01:31:59;;;;;;;5.22;3.35;;;;;;;20.86;37.09;102679.44;4149769;28;20080;-55
2021/06/13 01:34:02;;;;;;;9.10;3.20;;;;;;;20.83;36.84;102673.25;4153082;28;20025;-52
2021/06/13 01:36:04;;;;;;;5.15;3.75;;;;;;;20.69;37.20;102674.66;4158015;28;20033;-57
2021/06/13 01:38:06;;;;;;;6.25;3.35;;;;;;;20.72;37.00;102665.81;4155988;28;20033;-53
2021/06/13 01:40:11;;;;;;;6.50;3.50;;;;;;;20.73;37.42;102681.44;4153378;28;20045;-54
2021/06/13 01:42:15;;;;;;;4.97;3.58;;;;;;;20.63;37.45;102667.28;4150363;28;20045;-54
2021/06/13 01:44:18;;;;;;;6.68;3.78;;;;;;;20.71;37.11;102666.06;4154950;28;20052;-55
2021/06/13 01:46:19;;;;;;;5.45;3.90;;;;;;;20.72;36.96;102665.81;4151445;28;20863;-56
2021/06/13 01:48:21;;;;;;;6.35;4.00;;;;;;;20.67;37.25;102662.94;4154551;28;20037;-52
2021/06/13 01:50:24;;;;;;;3.85;3.20;;;;;;;20.61;37.33;102650.00;4156949;28;20025;-55
2021/06/13 01:52:28;;;;;;;5.85;3.17;;;;;;;20.58;37.29;102656.91;4157349;28;20468;-55
2021/06/13 01:54:31;;;;;;;7.38;4.05;;;;;;;20.45;37.81;102663.56;4157645;28;20036;-56
2021/06/13 01:56:36;;;;;;;6.15;4.07;;;;;;;20.35;37.75;102666.13;4155829;28;20071;-56
2021/06/13 01:58:38;;;;;;;5.00;3.63;;;;;;;20.53;37.35;102653.13;4156404;28;20033;-57
2021/06/13 02:00:39;;;;;;;4.28;3.10;;;;;;;20.47;37.34;102657.75;4155301;28;20029;-56
2021/06/13 02:02:44;;;;;;;5.38;3.00;;;;;;;20.52;37.41;102663.41;4153380;28;20439;-56
2021/06/13 02:04:45;;;;;;;4.82;3.33;;;;;;;20.40;37.72;102662.59;4156593;28;20039;-55
2021/06/13 02:06:59;;;;;;;6.00;3.63;;;;;;;20.24;37.72;102662.28;4153443;28;20655;-57
2021/06/13 02:09:00;;;;;;;4.85;2.90;;;;;;;20.47;37.51;102654.97;4158943;28;20033;-57
2021/06/13 02:11:08;;;;;;;5.38;3.38;;;;;;;20.58;37.12;102662.47;4152493;28;20045;-59
2021/06/13 02:13:12;;;;;;;5.15;3.47;;;;;;;20.53;37.30;102664.25;4157810;28;20030;-59
2021/06/13 02:15:17;;;;;;;4.82;3.40;;;;;;;20.55;36.98;102656.53;4151834;28;20041;-58
2021/06/13 02:17:17;;;;;;;4.63;3.00;;;;;;;20.49;37.37;102650.00;4157037;28;20776;-53
2021/06/13 02:19:20;;;;;;;9.10;3.70;;;;;;;20.54;37.27;102661.22;4154102;28;20036;-55
2021/06/13 02:21:21;;;;;;;3.70;2.67;;;;;;;20.51;37.49;102661.72;4152666;28;20059;-54
2021/06/13 02:23:25;;;;;;;5.63;3.05;;;;;;;20.53;37.30;102664.25;4157210;28;20029;-54
2021/06/13 02:25:26;;;;;;;4.93;3.38;;;;;;;20.44;37.64;102661.88;4154667;28;20037;-53
2021/06/13 02:27:29;;;;;;;5.50;3.40;;;;;;;20.42;37.41;102661.28;4150950;28;20530;-51
2021/06/13 02:29:31;;;;;;;4.75;3.20;;;;;;;20.52;37.34;102657.84;4153903;28;20030;-50
2021/06/13 02:31:32;;;;;;;5.28;3.65;;;;;;;20.48;37.31;102656.66;4154626;28;20764;-50
2021/06/13 02:33:37;;;;;;;7.53;3.63;;;;;;;20.47;37.31;102657.75;4154227;28;20026;-50
2021/06/13 02:35:41;;;;;;;4.57;2.85;;;;;;;20.48;37.31;102659.44;4155212;28;20041;-51
2021/06/13 02:37:44;;;;;;;5.00;3.60;;;;;;;20.34;37.39;102652.47;4154680;28;20860;-51
2021/06/13 02:39:45;;;;;;;4.80;3.15;;;;;;;20.33;37.60;102667.44;4155891;28;20028;-49
2021/06/13 02:41:48;;;;;;;4.90;3.20;;;;;;;20.41;37.26;102667.09;4154889;28;20076;-53
2021/06/13 02:43:48;;;;;;;4.47;3.33;;;;;;;20.35;37.22;102662.50;4158649;28;20512;-53
2021/06/13 02:45:49;;;;;;;4.72;3.08;;;;;;;20.37;37.48;102671.44;4155260;28;20082;-50
2021/06/13 02:47:50;;;;;;;5.28;3.38;;;;;;;20.35;37.30;102668.06;4149270;28;20038;-51
2021/06/13 02:49:51;;;;;;;3.90;3.38;;;;;;;20.43;37.31;102664.88;4155275;28;20061;-53
2021/06/13 02:52:20;;;;;;;5.25;3.45;;;;;;;20.42;37.06;102663.19;4152727;28;20040;-52
2021/06/13 02:54:20;;;;;;;4.75;3.22;;;;;;;20.36;37.32;102664.19;4157978;28;20031;-50
2021/06/13 02:56:29;;;;;;;5.38;3.25;;;;;;;20.32;37.36;102674.94;4151882;28;20033;-50
2021/06/13 02:58:44;;;;;;;7.65;3.33;;;;;;;20.28;37.27;102669.03;4157292;28;20116;-51
2021/06/13 03:00:47;;;;;;;5.38;2.70;;;;;;;20.29;37.01;102658.75;4154686;28;20552;-59
2021/06/13 03:02:51;;;;;;;4.07;2.75;;;;;;;20.26;37.63;102662.84;4150345;28;20030;-57
2021/06/13 03:04:52;;;;;;;4.50;2.80;;;;;;;20.44;37.10;102674.94;4151004;28;20093;-59
2021/06/13 03:06:57;;;;;;;4.97;3.10;;;;;;;20.25;37.59;102665.88;4154945;28;20550;-49
2021/06/13 03:08:57;;;;;;;6.68;3.10;;;;;;;20.27;37.39;102667.34;4150173;28;20091;-53
2021/06/13 03:10:58;;;;;;;5.05;2.65;;;;;;;19.98;37.88;102671.13;4154387;28;20759;-51
2021/06/13 03:12:59;;;;;;;8.02;3.67;;;;;;;20.18;37.92;102668.81;4156972;28;20061;-50
2021/06/13 03:15:01;;;;;;;3.65;3.08;;;;;;;20.27;37.35;102670.13;4157529;28;20036;-55
2021/06/13 03:17:02;;;;;;;5.03;3.40;;;;;;;20.08;37.55;102674.13;4157225;28;20063;-50
2021/06/13 03:19:03;;;;;;;3.60;3.15;;;;;;;20.13;37.46;102669.53;4156273;28;20407;-53
2021/06/13 03:21:06;;;;;;;7.72;3.40;;;;;;;20.27;37.49;102672.91;4142765;28;20468;-54
2021/06/13 03:23:06;;;;;;;4.78;3.25;;;;;;;20.25;37.36;102669.53;4157902;28;20113;-53
2021/06/13 03:25:08;;;;;;;3.75;2.85;;;;;;;20.18;37.65;102666.03;4156507;28;20064;-52
2021/06/13 03:27:09;;;;;;;4.88;3.10;;;;;;;20.24;37.44;102673.38;4155905;28;20054;-51
2021/06/13 03:29:10;;;;;;;4.10;2.88;;;;;;;20.20;37.39;102672.19;4156353;28;20037;-52
2021/06/13 03:31:12;;;;;;;4.88;3.40;;;;;;;20.08;37.69;102665.78;4155912;28;20036;-54
2021/06/13 03:33:14;;;;;;;5.93;3.15;;;;;;;20.10;37.43;102670.03;4158392;28;20056;-53
2021/06/13 03:35:15;;;;;;;4.57;2.67;;;;;;;20.05;37.57;102657.94;4156708;28;20041;-55
2021/06/13 03:37:16;;;;;;;4.57;2.60;;;;;;;19.88;38.15;102669.78;4160663;28;20029;-55
2021/06/13 03:39:17;;;;;;;4.55;2.97;;;;;;;19.83;38.14;102677.13;4151075;28;20034;-56
2021/06/13 03:41:21;;;;;;;4.65;2.97;;;;;;;19.65;38.39;102673.38;4154002;28;20037;-56
2021/06/13 03:43:22;;;;;;;3.75;3.10;;;;;;;19.93;37.77;102671.84;4155828;28;20040;-58
2021/06/13 03:45:25;;;;;;;4.88;3.58;;;;;;;19.98;37.55;102677.53;4154676;28;20122;-56
2021/06/13 03:47:27;;;;;;;4.22;2.83;;;;;;;20.01;37.70;102671.47;4157619;28;20083;-57
2021/06/13 03:49:28;;;;;;;6.00;2.85;;;;;;;19.98;37.80;102683.09;4157425;28;20064;-56
2021/06/13 03:51:28;;;;;;;4.25;3.00;;;;;;;19.78;37.83;102653.69;4155430;28;20092;-56
2021/06/13 03:53:29;;;;;;;5.32;2.92;;;;;;;19.88;37.91;102680.91;4154970;28;20036;-51
2021/06/13 03:55:30;;;;;;;5.20;2.80;;;;;;;19.85;37.96;102686.09;4157007;28;20037;-52
2021/06/13 03:57:33;;;;;;;7.30;2.80;;;;;;;19.83;37.81;102675.19;4160543;28;20400;-51
2021/06/13 03:59:35;;;;;;;4.78;2.60;;;;;;;19.98;38.08;102694.19;4157079;28;20039;-50
2021/06/13 04:01:38;;;;;;;2.88;2.67;;;;;;;20.00;37.64;102686.44;4158218;28;20033;-53
2021/06/13 04:03:46;;;;;;;5.22;3.33;;;;;;;19.88;38.03;102692.03;4156839;28;20029;-51
2021/06/13 04:05:48;;;;;;;5.55;3.00;;;;;;;19.93;37.93;102686.59;4158912;28;20029;-51
2021/06/13 04:07:49;;;;;;;2.90;2.70;;;;;;;19.80;38.18;102689.56;4156948;28;20030;-50
2021/06/13 04:09:50;;;;;;;4.35;2.60;;;;;;;19.57;38.53;102690.38;4155337;28;20037;-49
2021/06/13 04:11:51;;;;;;;6.88;3.33;;;;;;;19.66;38.52;102696.44;4156761;28;20030;-52
2021/06/13 04:13:54;;;;;;;3.25;2.42;;;;;;;19.79;38.14;102685.09;4161002;28;20029;-53
2021/06/13 04:15:55;;;;;;;4.18;2.50;;;;;;;19.94;37.37;102695.75;4158028;28;20076;-52
2021/06/13 04:17:56;;;;;;;6.78;3.38;;;;;;;19.89;37.96;102695.66;4155531;28;20034;-52
2021/06/13 04:19:57;;;;;;;5.00;3.45;;;;;;;19.96;37.87;102696.38;4159441;28;20040;-52
2021/06/13 04:21:59;;;;;;;5.40;3.33;;;;;;;19.90;37.64;102694.56;4156591;28;20468;-49
2021/06/13 04:24:00;;;;;;;5.32;2.85;;;;;;;19.92;37.96;102700.72;4153100;28;20107;-50
2021/06/13 04:26:00;;;;;;;6.75;3.00;;;;;;;19.89;37.70;102699.25;4152118;28;20538;-49
2021/06/13 04:28:02;;;;;;;3.40;2.95;;;;;;;19.92;37.70;102701.56;4156110;28;20033;-53
2021/06/13 04:30:06;;;;;;;3.70;2.80;;;;;;;19.83;37.96;102708.53;4157460;28;20116;-55
2021/06/13 04:32:10;;;;;;;4.18;3.33;;;;;;;19.68;38.33;102697.03;4159742;28;20076;-54
2021/06/13 04:34:10;;;;;;;5.03;2.80;;;;;;;19.89;37.37;102696.47;4156405;28;20033;-55
2021/06/13 04:36:12;;;;;;;4.60;2.78;;;;;;;19.58;38.58;102692.91;4155580;28;20041;-51
2021/06/13 04:38:12;;;;;;;4.15;2.80;;;;;;;19.52;38.92;102706.91;4155328;28;20104;-54
2021/06/13 04:40:12;;;;;;;4.50;3.10;;;;;;;19.16;39.27;102695.72;4155899;28;20037;-50
2021/06/13 04:42:14;;;;;;;4.60;3.10;;;;;;;19.26;39.26;102706.22;4157187;28;20033;-53
2021/06/13 04:44:14;;;;;;;4.78;3.20;;;;;;;19.58;38.54;102704.03;4155173;28;20387;-53
2021/06/13 04:46:20;;;;;;;3.85;3.13;;;;;;;19.15;39.38;102707.88;4157386;28;20046;-54
2021/06/13 04:48:21;;;;;;;3.55;2.58;;;;;;;19.16;39.17;102690.16;4154814;28;20046;-52
2021/06/13 04:50:23;;;;;;;4.50;2.90;;;;;;;19.34;39.00;102705.91;4155903;28;20432;-54
2021/06/13 04:52:24;;;;;;;5.60;2.60;;;;;;;19.54;38.37;102711.16;4159097;28;20033;-52
2021/06/13 04:54:48;;;;;;;4.45;2.40;;;;;;;19.67;38.23;102723.16;4155970;28;20040;-52
2021/06/13 04:57:15;;;;;;;5.55;3.15;;;;;;;19.30;39.29;102726.06;4153761;28;20061;-54
2021/06/13 04:59:16;;;;;;;7.65;3.20;;;;;;;18.90;39.82;102713.53;4154858;28;20029;-53
2021/06/13 05:01:16;;;;;;;3.47;2.40;;;;;;;19.33;39.03;102711.72;4155659;28;20038;-54
2021/06/13 05:03:18;;;;;;;5.15;2.90;;;;;;;19.50;38.88;102722.97;4155335;28;20060;-54
2021/06/13 05:05:18;;;;;;;4.15;2.58;;;;;;;19.54;38.22;102715.84;4158434;28;20075;-50
2021/06/13 05:07:19;;;;;;;5.40;3.03;;;;;;;19.26;39.24;102728.44;4139911;28;20071;-54
2021/06/13 05:09:19;;;;;;;3.35;2.67;;;;;;;19.68;37.88;102742.34;4158584;28;20041;-54
2021/06/13 05:11:20;;;;;;;8.90;2.97;;;;;;;19.13;39.25;102709.22;4152156;28;20045;-55
2021/06/13 05:13:20;;;;;;;5.85;2.90;;;;;;;19.24;39.11;102734.22;4153050;28;20036;-50
2021/06/13 05:15:22;;;;;;;6.25;2.85;;;;;;;19.23;39.01;102745.56;4157896;28;20040;-56
2021/06/13 05:17:23;;;;;;;4.53;3.00;;;;;;;19.52;38.58;102754.13;4155572;28;20045;-54
2021/06/13 05:19:23;;;;;;;3.88;2.63;;;;;;;19.66;38.45;102746.44;4155147;28;20435;-53
2021/06/13 05:21:24;;;;;;;4.43;2.72;;;;;;;19.72;38.39;102738.00;4158181;28;20057;-51
2021/06/13 05:23:25;;;;;;;6.75;3.03;;;;;;;19.46;38.96;102752.31;4156385;28;20042;-53
2021/06/13 05:25:29;;;;;;;3.38;2.30;;;;;;;19.47;38.74;102713.19;4147193;28;20543;-55
2021/06/13 05:27:29;;;;;;;6.40;2.58;;;;;;;19.39;39.25;102744.91;4150523;28;20044;-56
2021/06/13 05:29:30;;;;;;;5.78;3.22;;;;;;;19.34;39.35;102747.56;4157610;28;20033;-52
2021/06/13 05:31:31;;;;;;;5.28;3.20;;;;;;;19.39;38.98;102721.88;4156161;28;20038;-54
2021/06/13 05:33:31;;;;;;;4.38;2.30;;;;;;;19.42;39.23;102750.00;4139353;28;20042;-55
2021/06/13 05:35:33;;;;;;;5.93;2.88;;;;;;;19.24;39.42;102756.44;4155958;28;20496;-55
2021/06/13 05:37:34;;;;;;;6.35;3.38;;;;;;;19.54;39.05;102750.06;4154061;28;20132;-50
2021/06/13 05:39:34;;;;;;;6.32;2.78;;;;;;;19.45;39.27;102754.25;4150829;28;20992;-53
2021/06/13 05:41:35;;;;;;;6.07;2.92;;;;;;;19.63;38.87;102766.38;4154037;28;20059;-55
2021/06/13 05:43:35;;;;;;;4.85;2.92;;;;;;;19.65;38.68;102759.50;4155667;28;20034;-52
2021/06/13 05:45:37;;;;;;;5.57;2.90;;;;;;;19.45;39.15;102759.81;4152704;28;20108;-51
2021/06/13 05:47:38;;;;;;;5.10;2.65;;;;;;;19.56;38.79;102767.31;4156262;28;20418;-54
2021/06/13 05:49:39;;;;;;;6.45;3.47;;;;;;;19.40;39.32;102754.97;4155829;28;20539;-56
2021/06/13 05:51:39;;;;;;;4.15;2.83;;;;;;;19.73;38.21;102758.31;4158651;28;20048;-55
2021/06/13 05:53:40;;;;;;;4.90;2.92;;;;;;;19.82;38.12;102765.22;4154261;28;20551;-54
2021/06/13 05:55:41;;;;;;;5.97;3.25;;;;;;;19.65;38.32;102758.63;4156041;28;20504;-52
2021/06/13 05:57:44;;;;;;;4.68;2.85;;;;;;;19.78;38.19;102769.53;4155520;28;20034;-53
2021/06/13 05:59:44;;;;;;;4.63;2.50;;;;;;;19.90;37.77;102770.44;4155755;28;21500;-52
2021/06/13 06:01:45;;;;;;;4.55;2.58;;;;;;;19.97;37.75;102766.72;4156443;28;20037;-53
2021/06/13 06:03:45;;;;;;;4.53;2.47;;;;;;;19.80;37.99;102760.97;4153448;28;20037;-54
2021/06/13 06:05:46;;;;;;;4.03;2.70;;;;;;;19.79;38.77;102765.69;4156879;28;20504;-53
2021/06/13 06:07:48;;;;;;;4.38;2.75;;;;;;;19.73;38.95;102769.41;4155716;28;20093;-52
2021/06/13 06:09:48;;;;;;;5.60;2.88;;;;;;;19.38;39.64;102772.94;4149997;28;20380;-56
2021/06/13 06:11:49;;;;;;;5.13;2.78;;;;;;;19.61;39.22;102772.16;4154372;28;20033;-55
2021/06/13 06:13:53;;;;;;;4.85;2.75;;;;;;;19.53;39.20;102767.78;4155286;28;20062;-52
2021/06/13 06:15:53;;;;;;;3.83;2.88;;;;;;;19.77;38.67;102774.25;4158169;28;20042;-55
2021/06/13 06:17:55;;;;;;;8.32;3.35;;;;;;;19.58;39.02;102779.03;4155107;28;20030;-56
2021/06/13 06:19:55;;;;;;;6.45;2.80;;;;;;;19.85;38.64;102780.56;4159285;28;20033;-52
2021/06/13 06:21:56;;;;;;;5.35;2.72;;;;;;;19.90;38.51;102772.38;4153854;28;20033;-52
2021/06/13 06:23:56;;;;;;;4.68;2.50;;;;;;;19.75;38.96;102772.78;4154885;28;20513;-53
2021/06/13 06:25:57;;;;;;;3.58;2.60;;;;;;;19.54;39.11;102775.03;4155870;28;20560;-54
2021/06/13 06:27:58;;;;;;;5.03;2.60;;;;;;;19.53;39.33;102784.44;4154344;28;20033;-53
2021/06/13 06:29:58;;;;;;;4.65;2.65;;;;;;;19.76;38.93;102782.84;4155852;28;20064;-54
2021/06/13 06:31:59;;;;;;;7.55;2.97;;;;;;;19.37;39.72;102799.00;4148919;28;20526;-53
2021/06/13 06:34:00;;;;;;;4.25;3.30;;;;;;;19.89;38.17;102804.03;4155291;28;20030;-50
2021/06/13 06:36:00;;;;;;;4.95;2.72;;;;;;;19.87;38.50;102803.44;4151885;28;20025;-52
2021/06/13 06:38:01;;;;;;;7.22;3.15;;;;;;;19.53;39.32;102798.34;4156712;28;20017;-54
2021/06/13 06:40:03;;;;;;;6.07;2.75;;;;;;;19.59;39.04;102794.63;4156926;28;20607;-54
2021/06/13 06:42:04;;;;;;;6.38;2.75;;;;;;;19.83;38.98;102816.06;4157018;28;20035;-52
2021/06/13 06:44:06;;;;;;;6.07;3.08;;;;;;;19.62;39.32;102809.09;4156175;28;20060;-54
2021/06/13 06:46:06;;;;;;;4.07;2.60;;;;;;;19.91;38.50;102808.28;4151568;28;20050;-53
2021/06/13 06:48:07;;;;;;;6.07;2.50;;;;;;;19.80;39.18;102822.09;4161229;28;20459;-54
2021/06/13 06:50:08;;;;;;;5.00;2.78;;;;;;;19.83;38.71;102825.25;4157577;28;20480;-52
2021/06/13 06:52:09;;;;;;;6.65;3.00;;;;;;;19.71;39.01;102807.69;4158799;28;20037;-53
2021/06/13 06:54:09;;;;;;;4.88;2.70;;;;;;;19.84;38.94;102804.75;4159274;28;20038;-52
2021/06/13 06:56:10;;;;;;;4.97;2.75;;;;;;;19.95;38.67;102823.38;4156598;28;20033;-54
2021/06/13 06:58:10;;;;;;;4.93;2.80;;;;;;;20.10;38.18;102820.16;4158734;28;20038;-56
2021/06/13 07:00:13;;;;;;;8.75;3.00;;;;;;;19.91;39.01;102824.09;4160275;28;20056;-55
2021/06/13 07:02:13;;;;;;;3.70;2.58;;;;;;;19.91;38.94;102827.72;4157397;28;20407;-54
2021/06/13 07:04:14;;;;;;;6.32;3.08;;;;;;;19.76;38.95;102817.03;4140098;28;20133;-53
2021/06/13 07:06:14;;;;;;;7.53;3.35;;;;;;;19.92;38.92;102832.19;4153512;28;20455;-54
2021/06/13 07:08:15;;;;;;;4.68;2.78;;;;;;;19.86;38.70;102822.03;4157122;28;20042;-52
2021/06/13 07:10:15;;;;;;;5.30;2.80;;;;;;;19.92;38.84;102837.75;4155048;28;20112;-55
2021/06/13 07:12:16;;;;;;;7.35;3.25;;;;;;;20.12;38.23;102834.66;4157169;28;20500;-52
2021/06/13 07:14:16;;;;;;;6.68;2.67;;;;;;;19.48;39.65;102831.53;4161214;28;20036;-54
2021/06/13 07:16:17;;;;;;;6.15;3.10;;;;;;;19.82;39.28;102837.47;4159850;28;20699;-54
2021/06/13 07:18:17;;;;;;;7.60;2.85;;;;;;;19.91;38.89;102841.63;4156590;28;20033;-54
2021/06/13 07:20:17;;;;;;;5.93;2.95;;;;;;;19.98;38.37;102829.56;4161829;28;20037;-55
2021/06/13 07:22:18;;;;;;;5.95;3.20;;;;;;;19.84;38.70;102840.88;4159186;28;20038;-53
2021/06/13 07:24:18;;;;;;;8.18;3.50;;;;;;;19.54;39.18;102844.50;4160942;28;20060;-54
2021/06/13 07:26:19;;;;;;;7.28;3.03;;;;;;;19.98;38.11;102847.06;4160810;28;20395;-54
2021/06/13 07:28:19;;;;;;;6.03;2.13;;;;;;;20.15;37.70;102833.34;4159525;28;20036;-53
2021/06/13 07:30:20;;;;;;;5.15;2.78;;;;;;;20.08;37.70;102829.81;4161460;28;20029;-55
2021/06/13 07:32:21;;;;;;;4.40;2.80;;;;;;;20.06;38.16;102831.97;4156462;28;20124;-56
2021/06/13 07:34:21;;;;;;;4.45;2.95;;;;;;;20.05;37.45;102836.72;4156302;28;20057;-51
2021/06/13 07:36:22;;;;;;;5.00;2.47;;;;;;;20.16;37.34;102834.16;4159794;28;20069;-55
2021/06/13 07:38:23;;;;;;;4.55;2.72;;;;;;;19.97;37.18;102839.81;4154673;28;20033;-54
2021/06/13 07:40:23;;;;;;;5.07;3.15;;;;;;;20.10;37.11;102831.28;4158783;28;20037;-55
2021/06/13 07:42:24;;;;;;;4.18;3.05;;;;;;;20.14;36.59;102839.97;4158578;28;20056;-50
2021/06/13 07:44:26;;;;;;;5.68;2.85;;;;;;;19.94;37.30;102843.06;4157522;28;20099;-53
2021/06/13 07:46:27;;;;;;;6.45;3.17;;;;;;;20.07;36.75;102834.53;4161051;28;20111;-55
2021/06/13 07:48:27;;;;;;;5.43;2.50;;;;;;;20.21;36.57;102837.94;4157899;28;20040;-55
2021/06/13 07:50:28;;;;;;;5.03;2.83;;;;;;;20.16;36.92;102846.16;4158223;28;20780;-54
2021/06/13 07:52:28;;;;;;;5.95;2.80;;;;;;;19.99;36.64;102842.34;4160438;28;20087;-54
2021/06/13 07:54:29;;;;;;;3.83;2.88;;;;;;;20.18;36.69;102843.13;4156359;28;20042;-53
2021/06/13 07:56:30;;;;;;;3.90;2.50;;;;;;;20.29;36.66;102851.47;4149567;28;20503;-55
2021/06/13 07:58:30;;;;;;;7.32;3.00;;;;;;;20.29;36.70;102856.19;4158687;28;20042;-54
2021/06/13 08:00:31;;;;;;;6.47;2.90;;;;;;;20.30;36.47;102861.53;4154302;28;20026;-54
2021/06/13 08:02:31;;;;;;;6.78;2.60;;;;;;;20.17;36.13;102856.16;4160200;28;20032;-52
2021/06/13 08:04:36;;;;;;;7.20;2.78;;;;;;;20.28;36.33;102849.81;4157199;28;20064;-55
2021/06/13 08:06:37;;;;;;;4.93;2.97;;;;;;;20.41;36.02;102853.44;4159917;28;20428;-55
2021/06/13 08:08:37;;;;;;;4.47;2.85;;;;;;;20.35;35.87;102857.19;4159618;28;20032;-54
2021/06/13 08:10:39;;;;;;;5.20;2.83;;;;;;;20.39;35.69;102863.94;4139656;28;20031;-55
2021/06/13 08:12:40;;;;;;;6.25;3.03;;;;;;;20.54;35.36;102871.81;4161020;28;20068;-51
2021/06/13 08:14:40;;;;;;;5.85;2.70;;;;;;;20.35;35.95;102855.25;4139152;28;20388;-51
2021/06/13 08:16:41;;;;;;;4.35;2.60;;;;;;;20.37;35.67;102863.34;4157173;28;20582;-57
2021/06/13 08:18:41;;;;;;;6.25;2.70;;;;;;;20.36;35.76;102862.50;4159796;28;20431;-53
2021/06/13 08:20:42;;;;;;;5.22;3.08;;;;;;;20.20;35.58;102836.22;4154972;28;20033;-55
2021/06/13 08:22:43;;;;;;;5.25;2.72;;;;;;;20.46;35.14;102867.47;4157768;28;20037;-57
2021/06/13 08:24:44;;;;;;;5.10;2.67;;;;;;;20.48;35.49;102866.16;4155771;28;20040;-55
2021/06/13 08:26:44;;;;;;;5.40;2.72;;;;;;;20.43;35.11;102874.34;4154199;28;20037;-55
2021/06/13 08:28:45;;;;;;;3.85;2.30;;;;;;;20.46;35.39;102871.09;4141140;28;20045;-54
2021/06/13 08:30:47;;;;;;;5.35;2.65;;;;;;;20.58;35.27;102878.66;4156899;28;20443;-55
2021/06/13 08:32:47;;;;;;;4.15;2.83;;;;;;;20.11;35.48;102866.34;4156443;28;20033;-57
2021/06/13 08:34:48;;;;;;;6.07;2.80;;;;;;;20.38;35.54;102874.22;4160090;28;20045;-56
2021/06/13 08:36:48;;;;;;;6.43;2.88;;;;;;;20.43;35.16;102870.72;4156095;28;20037;-56
2021/06/13 08:38:51;;;;;;;7.03;2.90;;;;;;;20.45;35.07;102862.97;4158685;28;20623;-53
2021/06/13 08:40:52;;;;;;;4.22;2.53;;;;;;;20.58;34.95;102873.09;4156621;28;20025;-50
2021/06/13 08:42:52;;;;;;;4.40;2.78;;;;;;;20.57;34.80;102872.22;4154392;28;20026;-54
2021/06/13 08:44:53;;;;;;;4.00;2.67;;;;;;;20.51;34.93;102866.75;4160477;28;20025;-50
2021/06/13 08:46:56;;;;;;;7.43;3.38;;;;;;;20.61;34.71;102873.44;4135117;28;20045;-56
2021/06/13 08:48:57;;;;;;;4.18;2.58;;;;;;;20.61;34.83;102879.00;4154144;28;20210;-55
2021/06/13 08:50:59;;;;;;;5.75;2.78;;;;;;;20.71;34.57;102874.75;4158073;28;20472;-55
2021/06/13 08:53:00;;;;;;;2.97;2.47;;;;;;;20.67;34.25;102866.91;4156631;28;20084;-54
2021/06/13 08:55:00;;;;;;;4.72;2.33;;;;;;;20.42;34.33;102838.44;4155826;28;20033;-52
2021/06/13 08:57:01;;;;;;;4.28;2.67;;;;;;;20.53;34.39;102856.22;4157391;28;20463;-54
2021/06/13 08:59:02;;;;;;;4.97;3.00;;;;;;;20.61;34.20;102856.75;4156139;28;20492;-52
2021/06/13 09:01:04;;;;;;;4.85;3.05;;;;;;;20.70;34.38;102856.38;4158130;28;20037;-49
2021/06/13 09:03:07;;;;;;;4.32;2.72;;;;;;;20.53;34.33;102839.53;4156171;28;20103;-57
2021/06/13 09:05:10;;;;;;;5.80;2.65;;;;;;;20.63;34.69;102860.13;4153276;28;20040;-56
2021/06/13 09:07:12;;;;;;;4.65;2.72;;;;;;;20.68;34.67;102870.53;4158468;28;20052;-50
2021/06/13 09:09:18;;;;;;;4.22;2.97;;;;;;;20.66;34.35;102869.94;4154839;28;20034;-50
2021/06/13 09:11:30;;;;;;;4.97;2.38;;;;;;;20.76;34.34;102872.09;4158443;28;20029;-51
2021/06/13 09:13:32;;;;;;;4.65;2.72;;;;;;;20.78;34.32;102864.38;4152308;28;20060;-51
2021/06/13 09:15:48;;;;;;;3.78;2.45;;;;;;;20.83;34.24;102870.88;4153355;28;20033;-51
2021/06/13 09:17:48;;;;;;;2.50;2.30;;;;;;;20.81;34.31;102872.22;4159215;28;20120;-53
2021/06/13 09:20:01;;;;;;;5.28;2.38;;;;;;;20.92;34.27;102881.66;4154784;28;20025;-52
2021/06/13 09:22:10;;;;;;;5.45;2.42;;;;;;;20.83;34.79;102875.59;4155865;28;20029;-50
2021/06/13 09:24:19;;;;;;;3.58;2.33;;;;;;;20.87;34.96;102885.19;4157590;28;20029;-52
2021/06/13 09:26:25;;;;;;;4.32;2.25;;;;;;;20.88;34.52;102872.94;4152161;28;20025;-52
2021/06/13 09:28:27;;;;;;;5.68;2.33;;;;;;;21.01;34.55;102886.59;4149913;28;20068;-55
2021/06/13 09:30:33;;;;;;;4.15;2.63;;;;;;;21.04;34.51;102882.50;4154888;28;20056;-53